Time;durP1;ratioP1;P1;durP2;ratioP2;P2;SDS_P1;SDS_P2;PMS_P1;PMS_P2;Temp;Humidity;BMP_temperature;BMP_pressure;BME280_temperature;BME280_humidity;BME280_pressure;Samples;Min_cycle;Max_cycle;Signal;HPM_P1;HPM_P2
2023/06/10 00:02:16;;;;;;;8.60;4.47;;;17.40;99.90;;;;;;5121036;27;20476;-78
2023/06/10 00:04:43;;;;;;;6.68;4.60;;;17.30;99.90;;;;;;5086595;28;20031;-78
2023/06/10 00:07:10;;;;;;;8.85;4.45;;;17.30;99.90;;;;;;5096139;28;20040;-78
2023/06/10 00:09:37;;;;;;;7.30;4.83;;;17.20;99.90;;;;;;5092986;28;20176;-79
2023/06/10 00:12:07;;;;;;;9.55;4.53;;;17.10;99.90;;;;;;5103721;28;20308;-79
2023/06/10 00:14:33;;;;;;;8.38;4.30;;;17.00;99.90;;;;;;5087773;28;20044;-79
2023/06/10 00:16:59;;;;;;;11.43;4.38;;;17.10;99.90;;;;;;5079430;28;20423;-78
2023/06/10 00:19:25;;;;;;;13.82;5.30;;;17.00;99.90;;;;;;5099156;28;20042;-79
2023/06/10 00:21:53;;;;;;;9.10;4.47;;;17.00;99.90;;;;;;5110607;28;20043;-79
2023/06/10 00:24:18;;;;;;;7.03;4.43;;;17.00;99.90;;;;;;5088673;28;20089;-79
2023/06/10 00:26:44;;;;;;;10.02;4.95;;;16.90;99.90;;;;;;5117671;27;20065;-80
2023/06/10 00:29:10;;;;;;;10.23;5.20;;;16.90;99.90;;;;;;5083537;28;20434;-79
2023/06/10 00:31:37;;;;;;;7.55;5.05;;;17.10;99.90;;;;;;5112674;28;20035;-79
2023/06/10 00:34:03;;;;;;;8.65;5.00;;;16.70;99.90;;;;;;5108997;28;20485;-78
2023/06/10 00:36:29;;;;;;;11.45;4.90;;;16.70;99.90;;;;;;5110857;28;20036;-79
2023/06/10 00:38:55;;;;;;;13.13;5.40;;;16.60;99.90;;;;;;5097139;28;20119;-79
2023/06/10 00:41:21;;;;;;;13.52;5.78;;;16.50;99.90;;;;;;5100772;28;20086;-79
2023/06/10 00:43:47;;;;;;;13.65;5.78;;;16.60;99.90;;;;;;5089496;28;20493;-80
2023/06/10 00:46:13;;;;;;;13.23;5.63;;;16.50;99.90;;;;;;5104395;28;20048;-79
2023/06/10 00:48:43;;;;;;;11.27;5.45;;;16.40;99.90;;;;;;5080452;28;20039;-81
2023/06/10 00:51:09;;;;;;;9.80;5.45;;;16.40;99.90;;;;;;5116066;28;20059;-79
2023/06/10 00:53:37;;;;;;;11.45;5.00;;;16.20;99.90;;;;;;5109537;28;20130;-79
2023/06/10 00:56:04;;;;;;;12.05;5.45;;;16.20;99.90;;;;;;5064341;28;20123;-78
2023/06/10 00:58:31;;;;;;;10.43;4.93;;;16.20;99.90;;;;;;5100096;28;20036;-80
2023/06/10 01:00:57;;;;;;;9.38;5.22;;;16.20;99.90;;;;;;5087152;28;20462;-80
2023/06/10 01:03:23;;;;;;;9.57;5.13;;;16.10;99.90;;;;;;5080726;28;20063;-79
2023/06/10 01:06:09;;;;;;;11.10;5.53;;;16.10;99.90;;;;;;5079981;28;20123;-79
2023/06/10 01:09:00;;;;;;;16.08;5.85;;;16.00;99.90;;;;;;5109548;27;20409;-79
2023/06/10 01:12:09;;;;;;;10.90;5.25;;;16.00;99.90;;;;;;5108529;28;20389;-78
2023/06/10 01:14:36;;;;;;;10.57;4.88;;;16.00;99.90;;;;;;5035837;28;20025;-79
2023/06/10 01:17:03;;;;;;;11.93;5.45;;;15.90;99.90;;;;;;5030684;28;20128;-79
2023/06/10 01:19:30;;;;;;;10.88;5.63;;;15.90;99.90;;;;;;5064933;28;20052;-78
2023/06/10 01:22:00;;;;;;;9.45;4.97;;;15.90;99.90;;;;;;5097400;28;20048;-78
2023/06/10 01:24:32;;;;;;;10.50;5.32;;;15.80;99.90;;;;;;5080132;28;20059;-78
2023/06/10 01:27:01;;;;;;;10.70;5.63;;;15.80;99.90;;;;;;5112908;28;20051;-77
2023/06/10 01:29:33;;;;;;;7.72;5.10;;;15.80;99.90;;;;;;5110145;28;20040;-79
2023/06/10 01:32:15;;;;;;;11.65;5.32;;;15.70;99.90;;;;;;5080932;28;20040;-79
2023/06/10 01:34:43;;;;;;;12.65;5.35;;;15.70;99.90;;;;;;5107213;28;20169;-79
2023/06/10 01:37:11;;;;;;;9.27;5.22;;;15.70;99.90;;;;;;5093859;28;20036;-79
2023/06/10 01:39:38;;;;;;;14.48;5.13;;;15.80;99.90;;;;;;5108327;28;20046;-79
2023/06/10 01:42:06;;;;;;;9.05;4.93;;;15.60;99.90;;;;;;5078113;28;20094;-78
2023/06/10 01:44:32;;;;;;;9.20;4.63;;;15.60;99.90;;;;;;5100799;28;20040;-78
2023/06/10 01:46:57;;;;;;;10.23;4.80;;;15.50;99.90;;;;;;5106644;28;20016;-79
2023/06/10 01:49:25;;;;;;;14.38;5.43;;;15.50;99.90;;;;;;5110112;28;20138;-77
2023/06/10 01:51:51;;;;;;;13.48;5.18;;;15.90;99.90;;;;;;5126199;27;20055;-77
2023/06/10 01:54:16;;;;;;;8.63;4.40;;;15.80;99.90;;;;;;5110144;27;20409;-79
2023/06/10 01:56:42;;;;;;;13.57;4.90;;;15.50;99.90;;;;;;5118920;27;20038;-79
2023/06/10 01:59:08;;;;;;;8.93;4.70;;;15.40;99.90;;;;;;5108417;28;20075;-79
2023/06/10 02:01:33;;;;;;;9.70;4.80;;;15.50;99.90;;;;;;5096084;28;20043;-79
2023/06/10 02:03:59;;;;;;;10.57;4.45;;;15.40;99.90;;;;;;5103806;28;20572;-78
2023/06/10 02:06:25;;;;;;;14.77;5.43;;;15.40;99.90;;;;;;5087319;28;20374;-80
2023/06/10 02:08:51;;;;;;;7.93;4.53;;;15.40;99.90;;;;;;5106886;28;20042;-79
2023/06/10 02:11:16;;;;;;;12.00;5.13;;;15.30;99.90;;;;;;5100146;28;20055;-77
2023/06/10 02:13:42;;;;;;;12.40;4.93;;;15.30;99.90;;;;;;5113036;27;20027;-79
2023/06/10 02:16:09;;;;;;;7.45;4.50;;;15.30;99.90;;;;;;5076963;28;20045;-77
2023/06/10 02:18:34;;;;;;;11.18;4.63;;;15.40;99.90;;;;;;5111423;28;20396;-77
2023/06/10 02:21:00;;;;;;;12.38;5.32;;;15.40;99.90;;;;;;5113413;28;20123;-78
2023/06/10 02:23:26;;;;;;;9.25;4.32;;;15.20;99.90;;;;;;5091071;28;20421;-78
2023/06/10 02:25:51;;;;;;;9.57;4.55;;;15.30;99.90;;;;;;5083539;28;20420;-78
2023/06/10 02:28:17;;;;;;;7.05;4.55;;;15.20;99.90;;;;;;5091090;28;20031;-78
2023/06/10 02:30:43;;;;;;;10.57;4.72;;;15.40;99.90;;;;;;5111920;28;20032;-78
2023/06/10 02:33:11;;;;;;;9.60;4.75;;;15.20;99.90;;;;;;5095327;28;20554;-78
2023/06/10 02:35:41;;;;;;;9.75;4.72;;;15.20;99.90;;;;;;5108117;28;20036;-78
2023/06/10 02:38:06;;;;;;;16.08;5.20;;;15.20;99.90;;;;;;5113862;28;20043;-78
2023/06/10 02:40:32;;;;;;;11.50;4.68;;;15.10;99.90;;;;;;5106451;28;20038;-78
2023/06/10 02:43:00;;;;;;;9.65;4.75;;;15.10;99.90;;;;;;5098146;28;20084;-79
2023/06/10 02:45:26;;;;;;;11.93;4.57;;;15.10;99.90;;;;;;5097795;28;20555;-78
2023/06/10 02:47:52;;;;;;;10.68;5.30;;;15.10;99.90;;;;;;5096162;28;20040;-78
2023/06/10 02:50:17;;;;;;;11.02;4.82;;;15.10;99.90;;;;;;5095376;28;20075;-79
2023/06/10 02:52:43;;;;;;;10.07;4.70;;;15.00;99.90;;;;;;5081866;28;20486;-78
2023/06/10 02:55:09;;;;;;;8.05;4.13;;;15.10;99.90;;;;;;5110823;27;20108;-79
2023/06/10 02:57:35;;;;;;;12.40;5.10;;;15.00;99.90;;;;;;5106122;28;20043;-79
2023/06/10 03:00:02;;;;;;;9.85;5.00;;;15.00;99.90;;;;;;5089251;28;20036;-78
2023/06/10 03:02:28;;;;;;;8.80;4.33;;;14.90;99.90;;;;;;5104725;28;20043;-77
2023/06/10 03:04:56;;;;;;;12.23;4.88;;;14.90;99.90;;;;;;5110834;28;20678;-78
2023/06/10 03:07:23;;;;;;;9.07;4.90;;;14.90;99.90;;;;;;5087253;28;20119;-77
2023/06/10 03:09:49;;;;;;;10.48;5.15;;;15.00;99.90;;;;;;5109991;28;20051;-79
2023/06/10 03:12:15;;;;;;;10.48;5.10;;;14.90;99.90;;;;;;5106304;28;20135;-79
2023/06/10 03:14:41;;;;;;;12.48;5.20;;;14.90;99.90;;;;;;5114453;28;20039;-79
2023/06/10 03:17:08;;;;;;;12.10;5.07;;;14.90;99.90;;;;;;5104162;27;20140;-78
2023/06/10 03:19:34;;;;;;;12.00;5.43;;;14.90;99.90;;;;;;5105578;28;20048;-78
2023/06/10 03:22:14;;;;;;;14.85;5.68;;;14.90;99.90;;;;;;5104132;27;20027;-78
2023/06/10 03:24:40;;;;;;;13.82;5.47;;;14.70;99.90;;;;;;5106374;28;20039;-78
2023/06/10 03:27:10;;;;;;;12.88;5.22;;;14.70;99.90;;;;;;5094607;28;20038;-78
2023/06/10 03:29:37;;;;;;;12.80;5.78;;;14.70;99.90;;;;;;5098803;28;20074;-80
2023/06/10 03:32:03;;;;;;;11.38;5.47;;;14.70;99.90;;;;;;5091670;27;20032;-78
2023/06/10 03:34:29;;;;;;;13.95;5.20;;;14.70;99.90;;;;;;5102907;27;20043;-78
2023/06/10 03:36:56;;;;;;;12.00;5.20;;;14.60;99.90;;;;;;5113401;28;20079;-79
2023/06/10 03:39:23;;;;;;;9.60;5.25;;;14.70;99.90;;;;;;5107966;27;20126;-77
2023/06/10 03:41:49;;;;;;;10.73;5.55;;;14.60;99.90;;;;;;5104664;28;20044;-81
2023/06/10 03:44:15;;;;;;;14.38;5.30;;;14.60;99.90;;;;;;5111103;28;20039;-79
2023/06/10 03:46:40;;;;;;;19.17;5.80;;;14.60;99.90;;;;;;5118816;27;20043;-78
2023/06/10 03:49:06;;;;;;;11.88;5.28;;;14.60;99.90;;;;;;5111890;27;20078;-80
2023/06/10 03:51:32;;;;;;;12.00;5.60;;;14.50;99.90;;;;;;5117955;27;20051;-77
2023/06/10 03:53:58;;;;;;;13.43;5.90;;;14.60;99.90;;;;;;5115462;27;20550;-78
2023/06/10 03:56:24;;;;;;;15.80;6.32;;;14.60;99.90;;;;;;5107661;28;20047;-79
2023/06/10 03:58:49;;;;;;;14.52;6.13;;;14.60;99.90;;;;;;5115818;27;20048;-79
2023/06/10 04:01:15;;;;;;;12.93;6.47;;;14.60;99.90;;;;;;5107059;27;20408;-78
2023/06/10 04:03:41;;;;;;;11.85;6.82;;;14.60;99.90;;;;;;5112699;28;20040;-78
2023/06/10 04:06:07;;;;;;;14.95;6.93;;;14.60;99.90;;;;;;5118622;27;20464;-79
2023/06/10 04:08:33;;;;;;;14.98;7.07;;;14.60;99.90;;;;;;5115672;28;20016;-78
2023/06/10 04:10:59;;;;;;;14.73;6.20;;;14.60;99.90;;;;;;5092563;28;20054;-77
2023/06/10 04:13:25;;;;;;;16.75;6.45;;;14.50;99.90;;;;;;5103622;28;20044;-78
2023/06/10 04:15:50;;;;;;;17.58;7.78;;;14.50;99.90;;;;;;5117834;28;20129;-78
2023/06/10 04:18:16;;;;;;;17.88;7.45;;;14.60;99.90;;;;;;5086238;28;20028;-77
2023/06/10 04:20:42;;;;;;;15.80;6.97;;;14.60;99.90;;;;;;5112784;27;20115;-77
2023/06/10 04:23:11;;;;;;;16.15;7.13;;;14.60;99.90;;;;;;5102256;28;20039;-77
2023/06/10 04:25:37;;;;;;;21.02;8.40;;;14.60;99.90;;;;;;5083654;28;20043;-77
2023/06/10 04:28:02;;;;;;;17.52;7.55;;;14.60;99.90;;;;;;5103624;28;20058;-78
2023/06/10 04:30:28;;;;;;;14.55;6.55;;;14.60;99.90;;;;;;5089679;28;20472;-78
2023/06/10 04:32:54;;;;;;;17.50;6.90;;;14.60;99.90;;;;;;5105193;28;20123;-80
2023/06/10 04:35:19;;;;;;;14.48;6.55;;;14.60;99.90;;;;;;5104977;28;20507;-78
2023/06/10 04:37:45;;;;;;;15.07;6.13;;;14.70;99.90;;;;;;5099821;28;20032;-78
2023/06/10 04:40:11;;;;;;;17.77;6.97;;;14.70;99.90;;;;;;5116165;27;20044;-79
2023/06/10 04:42:37;;;;;;;15.95;7.55;;;14.70;99.90;;;;;;5104615;27;20171;-78
2023/06/10 04:45:06;;;;;;;16.90;6.70;;;14.70;99.90;;;;;;5107411;27;20050;-78
2023/06/10 04:47:32;;;;;;;13.43;6.72;;;14.70;99.90;;;;;;5106683;28;20093;-78
2023/06/10 04:49:59;;;;;;;15.48;7.50;;;14.80;99.90;;;;;;5106539;28;20453;-77
2023/06/10 04:52:25;;;;;;;16.63;7.10;;;15.00;99.90;;;;;;5105131;28;20044;-78
2023/06/10 04:54:51;;;;;;;15.73;6.90;;;15.00;99.90;;;;;;5083457;28;20044;-78
2023/06/10 04:57:21;;;;;;;19.17;7.45;;;15.00;99.90;;;;;;5113350;27;20072;-77
2023/06/10 04:59:47;;;;;;;15.77;6.95;;;15.10;99.90;;;;;;5105824;27;20063;-78
2023/06/10 05:02:13;;;;;;;18.60;6.70;;;15.20;99.90;;;;;;5086918;28;20486;-78
2023/06/10 05:04:39;;;;;;;17.00;7.30;;;15.20;99.90;;;;;;5117018;28;20101;-79
2023/06/10 05:07:05;;;;;;;16.83;7.43;;;15.40;99.90;;;;;;5105586;28;20043;-77
2023/06/10 05:09:31;;;;;;;17.55;7.43;;;15.40;99.90;;;;;;5114807;28;20405;-77
2023/06/10 05:11:56;;;;;;;16.33;7.13;;;15.40;99.90;;;;;;5091940;28;20036;-78
2023/06/10 05:14:25;;;;;;;15.75;7.70;;;15.50;99.90;;;;;;5102457;28;20116;-77
2023/06/10 05:16:51;;;;;;;17.40;7.50;;;15.70;99.90;;;;;;5083845;28;20126;-77
2023/06/10 05:19:17;;;;;;;18.02;7.28;;;15.80;99.90;;;;;;5100878;28;20094;-77
2023/06/10 05:21:44;;;;;;;18.77;7.45;;;15.80;99.90;;;;;;5094601;28;20088;-78
2023/06/10 05:24:09;;;;;;;13.48;6.70;;;15.90;99.90;;;;;;5092026;28;20048;-77
2023/06/10 05:26:38;;;;;;;16.80;6.82;;;16.00;99.90;;;;;;5109323;28;20043;-78
2023/06/10 05:29:05;;;;;;;13.50;6.85;;;16.10;99.90;;;;;;5112505;28;20387;-78
2023/06/10 05:31:31;;;;;;;12.93;6.55;;;16.10;99.90;;;;;;5110060;28;20049;-78
2023/06/10 05:33:57;;;;;;;15.57;6.78;;;16.20;99.90;;;;;;5111027;28;20035;-79
2023/06/10 05:36:25;;;;;;;19.25;7.75;;;16.30;99.90;;;;;;5083284;28;20460;-78
2023/06/10 05:38:50;;;;;;;12.65;6.47;;;16.20;99.90;;;;;;5118779;27;20044;-79
2023/06/10 05:41:16;;;;;;;10.60;5.75;;;16.30;99.90;;;;;;5098026;28;20052;-77
2023/06/10 05:43:42;;;;;;;12.68;6.38;;;16.50;99.90;;;;;;5077472;28;20044;-76
2023/06/10 05:46:07;;;;;;;15.48;6.50;;;16.60;99.90;;;;;;5119153;28;20074;-78
2023/06/10 05:48:33;;;;;;;18.75;6.63;;;16.70;99.90;;;;;;5115238;28;20044;-77
2023/06/10 05:50:59;;;;;;;12.63;6.07;;;16.70;99.90;;;;;;5110348;28;20549;-77
2023/06/10 05:53:24;;;;;;;13.63;6.50;;;16.80;99.90;;;;;;5102788;28;20032;-78
2023/06/10 05:55:51;;;;;;;14.35;5.95;;;17.30;99.90;;;;;;5108820;28;20165;-77
2023/06/10 05:58:16;;;;;;;11.50;6.00;;;17.20;99.90;;;;;;5106867;28;20043;-78
2023/06/10 06:00:42;;;;;;;12.25;6.05;;;17.40;99.90;;;;;;5109560;28;20152;-78
2023/06/10 06:03:08;;;;;;;9.93;5.72;;;17.60;99.90;;;;;;5108011;28;20036;-77
2023/06/10 06:05:35;;;;;;;11.70;5.63;;;17.70;99.90;;;;;;5116866;28;20066;-77
2023/06/10 06:08:07;;;;;;;10.75;5.70;;;17.90;99.90;;;;;;5101218;28;20048;-77
2023/06/10 06:10:34;;;;;;;13.77;5.70;;;18.20;99.90;;;;;;5096788;28;20508;-79
2023/06/10 06:13:02;;;;;;;11.50;5.85;;;18.20;99.90;;;;;;5104103;28;20526;-78
2023/06/10 06:15:28;;;;;;;12.63;6.05;;;18.30;99.90;;;;;;5080941;28;20074;-78
2023/06/10 06:17:54;;;;;;;13.23;5.68;;;18.40;99.90;;;;;;5102107;28;20055;-77
2023/06/10 06:20:20;;;;;;;9.63;5.85;;;18.20;99.90;;;;;;5105406;28;20040;-77
2023/06/10 06:22:45;;;;;;;11.07;5.75;;;18.10;99.90;;;;;;5097105;28;20046;-78
2023/06/10 06:25:11;;;;;;;9.77;5.43;;;18.10;99.90;;;;;;5078210;28;20043;-77
2023/06/10 06:27:40;;;;;;;10.63;5.97;;;18.10;99.90;;;;;;5094014;28;20485;-79
2023/06/10 06:30:06;;;;;;;14.48;6.60;;;18.20;99.90;;;;;;5066026;28;20385;-76
2023/06/10 06:32:32;;;;;;;15.40;5.70;;;18.10;99.90;;;;;;5104325;28;20032;-78
2023/06/10 06:34:58;;;;;;;14.23;5.85;;;18.00;99.90;;;;;;5092328;28;20043;-79
2023/06/10 06:37:25;;;;;;;11.23;5.65;;;18.00;99.90;;;;;;5105245;27;20046;-77
2023/06/10 06:39:58;;;;;;;14.15;5.20;;;18.00;99.90;;;;;;5118651;27;20509;-77
2023/06/10 06:42:26;;;;;;;12.70;5.78;;;18.00;99.90;;;;;;5091882;28;20046;-78
2023/06/10 06:44:52;;;;;;;10.18;5.43;;;19.10;99.90;;;;;;5131565;27;20054;-79
2023/06/10 06:47:19;;;;;;;11.80;5.60;;;18.30;99.90;;;;;;5113635;27;20031;-80
2023/06/10 06:49:46;;;;;;;19.95;6.10;;;18.40;99.90;;;;;;5092387;28;20401;-78
2023/06/10 06:52:12;;;;;;;14.18;5.55;;;18.60;99.90;;;;;;5097753;27;20054;-79
2023/06/10 06:54:38;;;;;;;12.20;5.45;;;18.70;99.90;;;;;;5110253;28;20039;-78
2023/06/10 06:57:03;;;;;;;13.68;5.97;;;18.70;99.90;;;;;;5110895;27;20067;-78
2023/06/10 06:59:29;;;;;;;9.35;5.10;;;18.90;99.90;;;;;;5083781;28;20043;-78
2023/06/10 07:01:58;;;;;;;23.73;5.80;;;19.00;99.90;;;;;;5105552;27;20462;-77
2023/06/10 07:04:26;;;;;;;9.95;5.90;;;19.00;99.90;;;;;;5089613;27;20406;-79
2023/06/10 07:06:52;;;;;;;9.85;5.13;;;19.00;99.90;;;;;;5089526;28;20486;-79
2023/06/10 07:09:17;;;;;;;12.70;5.03;;;19.00;99.90;;;;;;5107020;28;20039;-78
2023/06/10 07:11:43;;;;;;;16.02;6.10;;;19.20;99.90;;;;;;5091311;28;20020;-78
2023/06/10 07:14:09;;;;;;;10.10;5.47;;;19.10;99.90;;;;;;5103857;28;20032;-77
2023/06/10 07:16:34;;;;;;;13.02;5.95;;;19.20;99.90;;;;;;5103118;28;20048;-79
2023/06/10 07:19:00;;;;;;;12.95;6.07;;;19.30;99.90;;;;;;5108021;28;20096;-79
2023/06/10 07:21:28;;;;;;;11.27;5.35;;;19.40;99.90;;;;;;5111427;27;20378;-79
2023/06/10 07:23:53;;;;;;;;;;;19.40;99.90;;;;;;5125710;27;20051;-79
2023/06/10 07:26:21;;;;;;;12.80;5.20;;;19.50;99.90;;;;;;5117781;28;19920;-80
2023/06/10 07:28:47;;;;;;;;;;;19.70;99.90;;;;;;5121290;28;20397;-78
2023/06/10 07:31:12;;;;;;;11.52;4.95;;;19.80;99.90;;;;;;5111508;27;19927;-79
2023/06/10 07:33:41;;;;;;;11.05;5.05;;;19.90;99.90;;;;;;5077320;28;20043;-79
2023/06/10 07:36:07;;;;;;;12.07;4.50;;;20.00;99.90;;;;;;5104492;28;20127;-79
2023/06/10 07:38:33;;;;;;;9.75;4.85;;;20.00;99.90;;;;;;5085664;28;20546;-79
2023/06/10 07:40:59;;;;;;;10.82;5.03;;;20.00;99.90;;;;;;5105568;28;20039;-79
2023/06/10 07:43:25;;;;;;;11.48;5.15;;;20.00;99.90;;;;;;5101553;28;20046;-78
2023/06/10 07:45:51;;;;;;;11.15;5.20;;;20.00;99.90;;;;;;5075638;28;20417;-79
2023/06/10 07:48:16;;;;;;;12.70;5.25;;;20.10;99.90;;;;;;5097899;28;20439;-79
2023/06/10 07:50:42;;;;;;;10.40;4.90;;;20.20;99.90;;;;;;5093004;28;20116;-79
2023/06/10 07:53:08;;;;;;;12.50;4.70;;;20.20;99.90;;;;;;5117331;28;20100;-77
2023/06/10 07:55:33;;;;;;;10.80;5.15;;;20.30;99.90;;;;;;5119230;27;20035;-78
2023/06/10 07:57:59;;;;;;;11.48;4.90;;;20.30;99.90;;;;;;5118127;27;20100;-77
2023/06/10 08:00:25;;;;;;;9.50;4.72;;;20.40;99.90;;;;;;5101340;28;20057;-79
2023/06/10 08:02:51;;;;;;;8.80;4.55;;;20.50;99.90;;;;;;5070334;28;20126;-80
2023/06/10 08:05:17;;;;;;;9.60;4.65;;;20.60;99.90;;;;;;5122697;27;20044;-78
2023/06/10 08:07:46;;;;;;;18.98;4.53;;;20.70;99.90;;;;;;5080937;28;20050;-79
2023/06/10 08:10:11;;;;;;;10.82;4.50;;;20.70;99.90;;;;;;5126085;27;20067;-79
2023/06/10 08:12:37;;;;;;;9.00;4.10;;;20.80;99.90;;;;;;5100868;28;20043;-79
2023/06/10 08:15:04;;;;;;;12.02;4.38;;;20.90;99.90;;;;;;5087925;28;20379;-79
2023/06/10 08:17:33;;;;;;;11.50;4.37;;;21.00;99.90;;;;;;5082106;28;20047;-78
2023/06/10 08:19:58;;;;;;;12.85;4.40;;;21.10;99.90;;;;;;5118576;28;20035;-79
2023/06/10 08:22:24;;;;;;;11.95;4.70;;;21.20;99.90;;;;;;5109535;27;20449;-82
2023/06/10 08:24:50;;;;;;;9.18;4.25;;;21.20;99.90;;;;;;5090835;28;20040;-79
2023/06/10 08:27:16;;;;;;;8.18;4.07;;;21.20;99.90;;;;;;5108974;28;20203;-79
2023/06/10 08:29:41;;;;;;;10.52;4.47;;;21.40;99.90;;;;;;5130096;27;20031;-80
2023/06/10 08:32:07;;;;;;;9.82;4.32;;;21.30;99.90;;;;;;5108312;28;20579;-79
2023/06/10 08:34:36;;;;;;;7.65;4.13;;;21.30;99.90;;;;;;5109117;28;20044;-78
2023/06/10 08:37:09;;;;;;;8.68;4.10;;;21.50;99.90;;;;;;5090893;28;20047;-77
2023/06/10 08:39:35;;;;;;;11.70;4.32;;;21.60;99.90;;;;;;5111942;28;20036;-80
2023/06/10 08:42:24;;;;;;;12.00;4.72;;;21.60;99.90;;;;;;5102136;28;20089;-79
2023/06/10 08:44:55;;;;;;;10.13;4.53;;;21.30;99.90;;;;;;5104178;28;20094;-79
2023/06/10 08:47:24;;;;;;;9.27;3.80;;;22.00;99.90;;;;;;5115098;27;20040;-79
2023/06/10 08:49:52;;;;;;;9.05;3.50;;;22.00;99.90;;;;;;5099993;28;20123;-79
2023/06/10 08:52:22;;;;;;;8.95;4.13;;;22.10;99.90;;;;;;5113140;28;20051;-78
2023/06/10 08:55:02;;;;;;;8.50;4.40;;;22.20;99.90;;;;;;5112067;28;20100;-77
2023/06/10 08:57:30;;;;;;;11.20;4.43;;;22.30;99.90;;;;;;5072790;28;20040;-79
2023/06/10 08:59:57;;;;;;;9.75;4.05;;;22.40;99.90;;;;;;5127620;27;20507;-78
2023/06/10 09:02:24;;;;;;;10.73;4.20;;;22.40;99.90;;;;;;5078615;28;20093;-78
2023/06/10 09:04:51;;;;;;;7.32;3.83;;;22.50;99.90;;;;;;5109579;28;20051;-77
2023/06/10 09:07:23;;;;;;;7.77;3.93;;;22.60;99.90;;;;;;5114124;28;20046;-79
2023/06/10 09:09:49;;;;;;;7.88;4.07;;;22.60;99.90;;;;;;5106970;27;20408;-79
2023/06/10 09:12:15;;;;;;;9.00;4.18;;;22.30;99.90;;;;;;5096502;27;20036;-80
2023/06/10 09:14:42;;;;;;;7.85;3.95;;;22.60;99.90;;;;;;5084181;28;20089;-79
2023/06/10 09:17:08;;;;;;;10.52;4.38;;;22.80;99.90;;;;;;5105199;28;20047;-79
2023/06/10 09:19:36;;;;;;;15.73;4.85;;;22.80;99.90;;;;;;5118906;27;20495;-78
2023/06/10 09:22:01;;;;;;;10.45;4.63;;;22.80;99.90;;;;;;5069467;28;20061;-78
2023/06/10 09:24:28;;;;;;;8.10;3.97;;;22.90;99.90;;;;;;5103536;28;20048;-79
2023/06/10 09:27:08;;;;;;;16.95;4.90;;;22.80;99.90;;;;;;5085219;28;20036;-79
2023/06/10 09:29:55;;;;;;;10.02;4.35;;;23.00;99.20;;;;;;5098705;28;20031;-79
2023/06/10 09:32:21;;;;;;;11.93;5.18;;;23.20;99.60;;;;;;5083922;28;20032;-77
2023/06/10 09:34:47;;;;;;;10.18;4.38;;;23.30;99.90;;;;;;5078741;28;20514;-78
2023/06/10 09:37:20;;;;;;;7.35;4.40;;;23.40;99.40;;;;;;5110313;28;20040;-78
2023/06/10 09:40:01;;;;;;;8.02;4.07;;;23.60;99.00;;;;;;5114382;28;20051;-79
2023/06/10 09:42:27;;;;;;;12.30;4.45;;;23.80;98.30;;;;;;5082632;28;20048;-79
2023/06/10 09:44:52;;;;;;;11.73;4.93;;;23.80;98.30;;;;;;5112218;28;20097;-79
2023/06/10 09:47:22;;;;;;;10.80;3.72;;;23.80;97.90;;;;;;5101717;28;20089;-78
2023/06/10 09:49:54;;;;;;;10.43;4.05;;;24.00;97.80;;;;;;5125878;28;20160;-78
2023/06/10 09:52:24;;;;;;;10.35;4.80;;;24.10;97.80;;;;;;5097480;28;20024;-78
2023/06/10 09:54:52;;;;;;;45.22;5.93;;;24.10;97.40;;;;;;5087528;28;20050;-79
2023/06/10 09:57:19;;;;;;;11.13;4.10;;;24.10;97.20;;;;;;5082156;28;20047;-79
2023/06/10 09:59:45;;;;;;;9.52;3.85;;;24.30;97.60;;;;;;5081506;28;20048;-79
2023/06/10 10:02:17;;;;;;;10.50;4.33;;;24.40;97.50;;;;;;5109269;28;20101;-79
2023/06/10 10:04:44;;;;;;;7.72;4.00;;;24.50;96.70;;;;;;5102759;28;20040;-79
2023/06/10 10:07:13;;;;;;;17.23;5.70;;;24.60;96.70;;;;;;5093107;28;20032;-80
2023/06/10 10:09:40;;;;;;;14.35;4.20;;;24.60;96.70;;;;;;5080962;28;20040;-81
2023/06/10 10:12:15;;;;;;;12.25;4.20;;;24.50;96.10;;;;;;5113522;28;20040;-81
2023/06/10 10:14:46;;;;;;;6.57;3.92;;;24.50;96.20;;;;;;5134008;27;20032;-80
2023/06/10 10:17:15;;;;;;;6.40;3.95;;;24.60;96.50;;;;;;5126700;28;20028;-79
2023/06/10 10:19:48;;;;;;;21.58;4.25;;;24.90;95.20;;;;;;5122004;28;20080;-80
2023/06/10 10:22:40;;;;;;;11.35;4.35;;;25.00;95.20;;;;;;5110478;28;20093;-80
2023/06/10 10:25:19;;;;;;;11.82;4.25;;;24.90;95.00;;;;;;5121432;27;20052;-81
2023/06/10 10:27:50;;;;;;;11.55;4.50;;;24.90;95.10;;;;;;5074693;28;20058;-80
2023/06/10 10:30:20;;;;;;;9.80;3.83;;;25.10;94.60;;;;;;5106647;28;20086;-79
2023/06/10 10:32:57;;;;;;;9.07;3.95;;;25.20;94.70;;;;;;5100601;28;20095;-80
2023/06/10 10:35:24;;;;;;;10.90;4.57;;;25.30;95.00;;;;;;5099886;28;20040;-80
2023/06/10 10:37:54;;;;;;;10.25;4.78;;;25.50;94.40;;;;;;5112934;28;20428;-80
2023/06/10 10:40:24;;;;;;;8.07;3.88;;;25.60;93.20;;;;;;5115224;28;20097;-81
2023/06/10 10:42:50;;;;;;;8.15;4.60;;;25.60;93.20;;;;;;5109085;28;20051;-80
2023/06/10 10:45:16;;;;;;;7.82;4.57;;;25.90;93.40;;;;;;5120969;28;20047;-80
2023/06/10 10:47:51;;;;;;;10.00;4.28;;;26.20;92.40;;;;;;5112812;28;20044;-78
2023/06/10 10:50:18;;;;;;;9.13;4.10;;;26.30;91.50;;;;;;5098652;28;20062;-80
2023/06/10 10:53:02;;;;;;;10.23;4.47;;;26.20;92.70;;;;;;5084259;28;20056;-80
2023/06/10 10:55:31;;;;;;;7.28;3.88;;;26.30;92.20;;;;;;5070800;28;20040;-79
2023/06/10 10:58:03;;;;;;;10.60;5.13;;;26.30;92.70;;;;;;5118862;28;20035;-80
2023/06/10 11:00:33;;;;;;;8.35;4.47;;;26.50;92.70;;;;;;5108789;28;20036;-81
2023/06/10 11:03:13;;;;;;;9.68;4.32;;;26.50;92.50;;;;;;5116880;28;20040;-79
2023/06/10 11:05:44;;;;;;;10.18;4.70;;;26.50;92.00;;;;;;5086328;28;20048;-80
2023/06/10 11:08:10;;;;;;;9.48;4.20;;;26.60;91.90;;;;;;5088810;28;20054;-79
2023/06/10 11:10:40;;;;;;;8.47;3.87;;;26.60;91.60;;;;;;5115959;28;20040;-80
2023/06/10 11:13:18;;;;;;;7.13;4.30;;;26.70;91.20;;;;;;5114218;28;20040;-79
2023/06/10 11:15:50;;;;;;;8.07;4.38;;;26.80;91.40;;;;;;5104591;28;20048;-78
2023/06/10 11:18:29;;;;;;;11.18;4.38;;;26.80;90.10;;;;;;5087006;28;20048;-82
2023/06/10 11:20:58;;;;;;;12.90;4.55;;;26.90;90.60;;;;;;5108955;28;20032;-80
2023/06/10 11:23:32;;;;;;;10.55;4.13;;;27.00;90.40;;;;;;5113836;28;20089;-81
2023/06/10 11:26:16;;;;;;;5.95;3.70;;;26.90;90.80;;;;;;5109704;28;20039;-81
2023/06/10 11:28:45;;;;;;;8.75;3.47;;;27.20;87.60;;;;;;5121687;27;20134;-79
2023/06/10 11:31:29;;;;;;;12.85;4.20;;;27.20;88.30;;;;;;5073598;28;20055;-80
2023/06/10 11:33:56;;;;;;;5.35;3.50;;;27.30;86.40;;;;;;5115285;28;20053;-79
2023/06/10 11:36:22;;;;;;;8.85;4.50;;;27.30;86.00;;;;;;5122669;28;20044;-80
2023/06/10 11:38:49;;;;;;;7.45;3.50;;;27.30;86.20;;;;;;5122621;28;20515;-82
2023/06/10 11:41:17;;;;;;;9.48;4.00;;;27.10;85.10;;;;;;5103209;28;20044;-80
2023/06/10 11:43:44;;;;;;;6.60;3.65;;;27.20;85.90;;;;;;5121165;28;20115;-80
2023/06/10 11:46:14;;;;;;;7.30;3.83;;;27.30;86.00;;;;;;5119591;28;20032;-78
2023/06/10 11:48:48;;;;;;;10.23;4.18;;;27.40;85.90;;;;;;5097745;28;20572;-78
2023/06/10 11:51:13;;;;;;;7.75;3.75;;;27.60;85.40;;;;;;5122748;28;20169;-80
2023/06/10 11:53:44;;;;;;;9.60;4.03;;;27.60;86.80;;;;;;5117114;28;20076;-79
2023/06/10 11:56:10;;;;;;;10.13;3.95;;;27.70;87.50;;;;;;5107403;28;20051;-80
2023/06/10 11:58:36;;;;;;;9.02;4.10;;;27.80;87.70;;;;;;5112252;28;20032;-78
2023/06/10 12:01:01;;;;;;;8.95;4.03;;;27.80;88.60;;;;;;5090462;28;20042;-80
2023/06/10 12:03:37;;;;;;;7.13;3.85;;;27.60;88.20;;;;;;5101265;28;20413;-80
2023/06/10 12:06:05;;;;;;;11.93;4.20;;;27.60;87.90;;;;;;5110431;28;20065;-80
2023/06/10 12:08:31;;;;;;;9.38;4.05;;;27.50;87.80;;;;;;5121123;28;20046;-82
2023/06/10 12:10:57;;;;;;;10.45;3.72;;;27.50;88.60;;;;;;5096235;28;20040;-79
2023/06/10 12:13:27;;;;;;;9.02;3.88;;;27.60;88.60;;;;;;5112679;28;20048;-79
2023/06/10 12:15:54;;;;;;;9.93;3.70;;;27.70;86.30;;;;;;5094798;28;20043;-79
2023/06/10 12:18:22;;;;;;;11.27;3.85;;;27.60;87.30;;;;;;5123788;28;20043;-80
2023/06/10 12:20:48;;;;;;;7.22;3.80;;;27.70;85.40;;;;;;5079714;27;20075;-77
2023/06/10 12:23:15;;;;;;;9.82;3.92;;;27.50;87.10;;;;;;5118367;28;20042;-81
2023/06/10 12:25:53;;;;;;;10.13;3.83;;;27.50;87.00;;;;;;5122671;28;20048;-80
2023/06/10 12:28:23;;;;;;;9.38;3.85;;;27.50;85.70;;;;;;5118273;28;20046;-81
2023/06/10 12:30:49;;;;;;;7.82;3.78;;;27.70;85.00;;;;;;5121148;28;20091;-80
2023/06/10 12:33:19;;;;;;;8.05;3.60;;;27.70;86.10;;;;;;5122858;28;20039;-81
2023/06/10 12:35:50;;;;;;;8.13;3.90;;;27.90;86.20;;;;;;5102171;28;20380;-80
2023/06/10 12:38:26;;;;;;;9.77;3.88;;;28.00;84.10;;;;;;5123689;27;20126;-82
2023/06/10 12:40:53;;;;;;;9.60;3.85;;;28.00;85.60;;;;;;5097988;28;20078;-79
2023/06/10 12:43:25;;;;;;;8.95;3.60;;;28.00;85.00;;;;;;5119820;27;20054;-79
2023/06/10 12:45:51;;;;;;;9.32;4.03;;;27.80;85.70;;;;;;5109779;28;20127;-80